Time;durP1;ratioP1;P1;durP2;ratioP2;P2;SDS_P1;SDS_P2;PMS_P1;PMS_P2;Temp;Humidity;BMP_temperature;BMP_pressure;BME280_temperature;BME280_humidity;BME280_pressure;Samples;Min_cycle;Max_cycle;Signal;HPM_P1;HPM_P2
2022/02/04 00:22:37;;;;;;;11.30;5.40;;;;;;;;;;6009324;29;20049;-74
2022/02/04 00:29:09;;;;;;;20.90;8.63;;;;;;;;;;6008861;29;20058;-74
2022/02/04 00:32:14;;;;;;;19.52;9.70;;;;;;;;;;6008647;29;20391;-74
2022/02/04 00:35:28;;;;;;;21.90;10.20;;;;;;;;;;6007224;29;20057;-74
2022/02/04 00:38:37;;;;;;;;;;;;;;;;;;6008870;29;20506;-75
2022/02/04 00:41:44;;;;;;;20.25;9.40;;;;;;;;;;6009922;29;19925;-75
2022/02/04 00:44:48;;;;;;;21.27;9.10;;;;;;;;;;6009036;29;20157;-75
2022/02/04 00:48:27;;;;;;;19.70;8.90;;;;;;;;;;6007125;29;20421;-75
2022/02/04 00:51:35;;;;;;;22.65;9.68;;;;;;;;;;6009312;29;20050;-75
2022/02/04 00:54:47;;;;;;;20.88;8.90;;;;;;;;;;6008501;29;20053;-74
2022/02/04 01:06:21;;;;;;;21.77;9.35;;;;;;;;;;6008951;29;20072;-74
2022/02/04 01:28:06;;;;;;;23.60;10.90;;;;;;;;;;6006988;29;20788;-74
2022/02/04 01:31:12;;;;;;;25.77;10.27;;;;;;;;;;6006540;29;20136;-74
2022/02/04 01:34:15;;;;;;;22.80;10.40;;;;;;;;;;6008655;29;20050;-74
2022/02/04 01:37:19;;;;;;;19.30;9.77;;;;;;;;;;6007081;29;20129;-74
2022/02/04 01:40:24;;;;;;;23.13;10.20;;;;;;;;;;6005885;29;20106;-75
2022/02/04 01:43:28;;;;;;;20.75;10.65;;;;;;;;;;6008328;29;20050;-73
2022/02/04 01:46:31;;;;;;;21.42;9.18;;;;;;;;;;6008490;29;20057;-72
2022/02/04 01:49:36;;;;;;;20.52;9.73;;;;;;;;;;6005778;29;20137;-74
2022/02/04 01:52:41;;;;;;;23.30;9.82;;;;;;;;;;6007648;29;20386;-73
2022/02/04 01:55:44;;;;;;;20.98;10.15;;;;;;;;;;6008434;29;20053;-74
2022/02/04 01:58:48;;;;;;;21.50;9.25;;;;;;;;;;6008028;29;20053;-73
2022/02/04 02:01:51;;;;;;;18.23;9.00;;;;;;;;;;6005439;29;20305;-73
2022/02/04 02:04:55;;;;;;;20.15;8.52;;;;;;;;;;6007972;29;20050;-72
2022/02/04 02:08:05;;;;;;;19.48;8.15;;;;;;;;;;6006988;29;20061;-73
2022/02/04 02:11:10;;;;;;;19.58;7.93;;;;;;;;;;6006470;29;20058;-72
2022/02/04 02:14:15;;;;;;;20.45;7.78;;;;;;;;;;6006751;29;20182;-73
2022/02/04 02:34:58;;;;;;;14.85;7.00;;;;;;;;;;5957066;29;20062;-72
2022/02/04 02:44:54;;;;;;;14.48;5.90;;;;;;;;;;6005759;29;20054;-73
2022/02/04 02:48:15;;;;;;;13.70;7.03;;;;;;;;;;6006235;29;20417;-72
2022/02/04 02:51:40;;;;;;;15.10;6.30;;;;;;;;;;6007358;29;20057;-72
2022/02/04 03:01:18;;;;;;;16.40;6.70;;;;;;;;;;6002475;29;20205;-72
2022/02/04 03:04:21;;;;;;;20.23;7.88;;;;;;;;;;6007184;29;20049;-72
2022/02/04 03:07:24;;;;;;;14.88;7.13;;;;;;;;;;6004940;29;20061;-72
2022/02/04 03:10:27;;;;;;;22.27;6.95;;;;;;;;;;6006870;29;20041;-72
2022/02/04 03:13:35;;;;;;;15.50;7.13;;;;;;;;;;6005590;29;20050;-72
2022/02/04 03:16:38;;;;;;;16.65;7.15;;;;;;;;;;6004678;29;20054;-72
2022/02/04 03:19:45;;;;;;;18.95;7.10;;;;;;;;;;6005841;29;20145;-72
2022/02/04 03:22:50;;;;;;;17.83;7.20;;;;;;;;;;6005540;29;20050;-72
2022/02/04 03:25:58;;;;;;;18.60;7.47;;;;;;;;;;6005274;29;20054;-72
2022/02/04 03:29:05;;;;;;;24.45;8.65;;;;;;;;;;6003761;29;20061;-73
2022/02/04 03:32:16;;;;;;;23.20;9.40;;;;;;;;;;6005299;29;20132;-73
2022/02/04 03:35:22;;;;;;;16.70;8.60;;;;;;;;;;5991224;29;20401;-73
2022/02/04 03:38:25;;;;;;;20.95;8.82;;;;;;;;;;6006163;29;20181;-74
2022/02/04 03:41:28;;;;;;;19.23;8.75;;;;;;;;;;6005015;29;20490;-73
2022/02/04 03:44:33;;;;;;;21.10;9.45;;;;;;;;;;6005370;29;20528;-73
2022/02/04 03:47:38;;;;;;;22.13;9.40;;;;;;;;;;6005081;29;20381;-73
2022/02/04 03:50:41;;;;;;;19.83;9.38;;;;;;;;;;6004827;29;20190;-73
2022/02/04 03:53:44;;;;;;;20.98;8.48;;;;;;;;;;6006511;29;20193;-73
2022/02/04 03:56:47;;;;;;;21.45;8.88;;;;;;;;;;6005307;29;20068;-73
2022/02/04 03:59:52;;;;;;;18.77;8.10;;;;;;;;;;6003777;29;20113;-73
2022/02/04 04:02:55;;;;;;;17.08;7.95;;;;;;;;;;6004432;29;20532;-73
2022/02/04 04:05:59;;;;;;;16.30;8.05;;;;;;;;;;6006430;29;20058;-73
2022/02/04 04:09:02;;;;;;;19.52;8.35;;;;;;;;;;6004439;29;20057;-73
2022/02/04 04:12:07;;;;;;;19.48;6.88;;;;;;;;;;6004763;29;20405;-73
2022/02/04 04:15:12;;;;;;;18.75;7.20;;;;;;;;;;6004960;29;20053;-73
2022/02/04 04:18:15;;;;;;;15.70;7.10;;;;;;;;;;6004907;29;20058;-72
2022/02/04 04:21:19;;;;;;;16.42;6.45;;;;;;;;;;6004463;29;20050;-73
2022/02/04 04:24:22;;;;;;;19.05;6.97;;;;;;;;;;6004663;29;20057;-74
2022/02/04 04:27:25;;;;;;;13.45;6.25;;;;;;;;;;6006187;29;20132;-73
2022/02/04 04:30:32;;;;;;;13.50;6.22;;;;;;;;;;6003974;29;20049;-71
2022/02/04 04:33:35;;;;;;;16.75;7.10;;;;;;;;;;6005011;29;20524;-72
2022/02/04 04:36:38;;;;;;;18.42;7.50;;;;;;;;;;6004815;29;20053;-72
2022/02/04 04:39:51;;;;;;;15.57;6.80;;;;;;;;;;6004519;29;20049;-71
2022/02/04 04:43:05;;;;;;;14.15;6.72;;;;;;;;;;6002724;29;20061;-73
2022/02/04 05:29:39;;;;;;;18.20;6.38;;;;;;;;;;6008940;29;20045;-73
2022/02/04 05:32:43;;;;;;;15.35;6.60;;;;;;;;;;6007703;29;20409;-74
2022/02/04 05:35:48;;;;;;;16.13;6.40;;;;;;;;;;6008618;29;20050;-73
2022/02/04 05:38:54;;;;;;;11.90;6.32;;;;;;;;;;6006213;29;20057;-73
2022/02/04 05:41:57;;;;;;;12.70;6.10;;;;;;;;;;6008958;29;20060;-73
2022/02/04 05:45:05;;;;;;;13.77;6.22;;;;;;;;;;6007558;29;20500;-73
2022/02/04 05:48:08;;;;;;;19.23;6.30;;;;;;;;;;6005776;29;20065;-73
2022/02/04 05:54:45;;;;;;;16.88;7.65;;;;;;;;;;6007012;29;20053;-75
2022/02/04 05:57:58;;;;;;;15.45;6.22;;;;;;;;;;6007316;29;20057;-75
2022/02/04 06:01:09;;;;;;;19.00;6.53;;;;;;;;;;6006889;29;20098;-75
2022/02/04 06:04:28;;;;;;;11.82;6.38;;;;;;;;;;6006744;29;20045;-75
2022/02/04 06:07:39;;;;;;;13.43;6.25;;;;;;;;;;6008335;29;20065;-73
2022/02/04 06:11:06;;;;;;;18.15;6.25;;;;;;;;;;6008112;29;20132;-77
2022/02/04 06:14:32;;;;;;;13.50;5.88;;;;;;;;;;6006287;29;20054;-74
2022/02/04 06:24:20;;;;;;;19.00;6.47;;;;;;;;;;6006796;29;20126;-74
2022/02/04 06:27:25;;;;;;;17.13;7.07;;;;;;;;;;6002371;29;20046;-75
2022/02/04 06:30:30;;;;;;;15.07;6.35;;;;;;;;;;6001613;29;20042;-75
2022/02/04 06:33:38;;;;;;;15.52;5.95;;;;;;;;;;6001157;29;20054;-74
2022/02/04 06:36:41;;;;;;;15.40;5.82;;;;;;;;;;5985616;29;20153;-75
2022/02/04 06:39:51;;;;;;;15.98;6.78;;;;;;;;;;6000432;29;20080;-76
2022/02/04 06:42:55;;;;;;;16.20;6.35;;;;;;;;;;6003663;29;20043;-73
2022/02/04 06:45:59;;;;;;;15.70;6.53;;;;;;;;;;6003388;29;20145;-74
2022/02/04 06:49:01;;;;;;;16.23;6.00;;;;;;;;;;6002836;29;20159;-75
2022/02/04 06:52:05;;;;;;;13.90;6.25;;;;;;;;;;6007178;29;20046;-75
2022/02/04 06:55:10;;;;;;;15.48;5.78;;;;;;;;;;6007317;29;20137;-74
2022/02/04 06:58:14;;;;;;;10.05;5.50;;;;;;;;;;6006529;29;20046;-73
2022/02/04 07:01:17;;;;;;;13.95;5.05;;;;;;;;;;6004781;29;20054;-75
2022/02/04 07:04:20;;;;;;;13.68;5.43;;;;;;;;;;6007109;29;20057;-74
2022/02/04 07:07:23;;;;;;;17.48;6.38;;;;;;;;;;6006899;29;20050;-75
2022/02/04 07:10:35;;;;;;;15.60;5.70;;;;;;;;;;6005144;29;20061;-75
2022/02/04 07:13:57;;;;;;;14.73;5.55;;;;;;;;;;6004138;29;20058;-75
2022/02/04 07:17:15;;;;;;;8.82;4.78;;;;;;;;;;6004091;29;20084;-75
2022/02/04 07:20:20;;;;;;;15.73;6.38;;;;;;;;;;6007172;29;20435;-75
2022/02/04 07:23:24;;;;;;;17.42;6.45;;;;;;;;;;6004747;29;20045;-75
2022/02/04 07:26:30;;;;;;;16.80;6.07;;;;;;;;;;6005645;29;20058;-74
2022/02/04 07:29:34;;;;;;;19.60;7.38;;;;;;;;;;6006685;29;20054;-75
2022/02/04 07:32:42;;;;;;;14.13;5.57;;;;;;;;;;6003710;29;20054;-74
2022/02/04 07:42:33;;;;;;;15.68;6.13;;;;;;;;;;6005156;29;20050;-74
2022/02/04 07:45:36;;;;;;;14.93;6.05;;;;;;;;;;6003584;29;20058;-74
2022/02/04 07:48:40;;;;;;;18.23;6.43;;;;;;;;;;6006164;29;20046;-75
2022/02/04 07:51:47;;;;;;;12.18;5.80;;;;;;;;;;6006403;29;20079;-76
2022/02/04 07:54:50;;;;;;;13.68;5.82;;;;;;;;;;6004894;29;20046;-76
2022/02/04 07:57:54;;;;;;;13.75;6.68;;;;;;;;;;6003336;29;20128;-76
2022/02/04 08:00:59;;;;;;;17.95;5.90;;;;;;;;;;6005057;29;20057;-76
2022/02/04 08:04:09;;;;;;;15.68;7.13;;;;;;;;;;6006239;29;20417;-75
2022/02/04 08:07:16;;;;;;;20.98;7.22;;;;;;;;;;6003390;29;20073;-75
2022/02/04 08:10:27;;;;;;;17.33;6.23;;;;;;;;;;6005905;29;20422;-75
2022/02/04 08:13:54;;;;;;;17.50;6.40;;;;;;;;;;6004977;29;20046;-73
2022/02/04 08:20:56;;;;;;;14.65;5.95;;;;;;;;;;5971181;29;20528;-74
2022/02/04 08:24:11;;;;;;;22.65;6.95;;;;;;;;;;6003174;29;20053;-75
2022/02/04 08:31:04;;;;;;;15.10;6.25;;;;;;;;;;5982684;29;20206;-74
2022/02/04 08:37:54;;;;;;;15.88;7.40;;;;;;;;;;6007168;29;20446;-76
2022/02/04 08:54:30;;;;;;;13.18;6.90;;;;;;;;;;6006927;29;20060;-75
2022/02/04 09:00:59;;;;;;;41.58;15.88;;;;;;;;;;6007339;29;20561;-76
2022/02/04 09:04:07;;;;;;;17.20;6.50;;;;;;;;;;6004631;29;20198;-76
2022/02/04 09:07:13;;;;;;;15.15;6.28;;;;;;;;;;6005833;29;20042;-76
2022/02/04 09:10:20;;;;;;;15.25;6.43;;;;;;;;;;6005595;29;20179;-76
2022/02/04 09:20:07;;;;;;;15.10;6.53;;;;;;;;;;6008577;29;20061;-77
2022/02/04 09:23:11;;;;;;;11.60;5.85;;;;;;;;;;6007999;29;20083;-77
2022/02/04 09:26:14;;;;;;;14.45;6.30;;;;;;;;;;6008624;29;20061;-77
2022/02/04 09:29:19;;;;;;;14.07;6.33;;;;;;;;;;6006638;29;20527;-77
2022/02/04 09:32:22;;;;;;;15.73;5.50;;;;;;;;;;6009307;29;20049;-77
2022/02/04 09:35:29;;;;;;;10.23;5.00;;;;;;;;;;6008369;29;20049;-77
2022/02/04 09:38:32;;;;;;;12.25;4.28;;;;;;;;;;6006682;29;20053;-76
2022/02/04 09:41:36;;;;;;;13.75;4.63;;;;;;;;;;6006952;29;20458;-76
2022/02/04 09:44:39;;;;;;;12.63;5.82;;;;;;;;;;6007460;29;20074;-76
2022/02/04 09:47:46;;;;;;;10.57;4.53;;;;;;;;;;6007378;29;20077;-76
2022/02/04 09:50:53;;;;;;;13.25;4.78;;;;;;;;;;6005858;29;20106;-75
2022/02/04 10:17:59;;;;;;;10.98;4.63;;;;;;;;;;6006750;29;20054;-77
2022/02/04 10:21:03;;;;;;;12.85;4.85;;;;;;;;;;6004159;29;20050;-78
2022/02/04 10:24:09;;;;;;;10.85;4.82;;;;;;;;;;6004762;29;20053;-77
2022/02/04 10:27:16;;;;;;;14.60;6.18;;;;;;;;;;6005387;29;20133;-79
2022/02/04 10:30:19;;;;;;;10.52;4.75;;;;;;;;;;6004744;29;20049;-78
2022/02/04 10:33:23;;;;;;;11.63;5.75;;;;;;;;;;6004986;29;20060;-80
2022/02/04 10:36:45;;;;;;;11.15;5.28;;;;;;;;;;6003778;29;20050;-79
2022/02/04 10:40:00;;;;;;;12.10;5.97;;;;;;;;;;6003563;29;20074;-78
2022/02/04 10:46:29;;;;;;;15.75;5.55;;;;;;;;;;6002083;29;20061;-76
2022/02/04 10:49:44;;;;;;;11.70;5.95;;;;;;;;;;6004713;29;20050;-78
2022/02/04 10:53:08;;;;;;;62.67;32.75;;;;;;;;;;6006650;29;20056;-78
2022/02/04 11:03:09;;;;;;;11.43;5.35;;;;;;;;;;6004238;29;20061;-77
2022/02/04 11:06:24;;;;;;;15.13;6.90;;;;;;;;;;6006834;29;20052;-76
2022/02/04 11:09:42;;;;;;;13.07;6.03;;;;;;;;;;6004988;29;20494;-79
2022/02/04 11:36:41;;;;;;;13.13;5.55;;;;;;;;;;6005406;29;20102;-78
2022/02/04 11:53:29;;;;;;;15.70;5.70;;;;;;;;;;6002538;29;19924;-80
2022/02/04 11:56:53;;;;;;;11.70;5.38;;;;;;;;;;6005669;29;20054;-79
2022/02/04 11:59:58;;;;;;;13.98;5.82;;;;;;;;;;6005545;29;20049;-78
2022/02/04 12:03:23;;;;;;;31.13;14.02;;;;;;;;;;6010124;29;20046;-79
2022/02/04 12:06:30;;;;;;;14.23;5.90;;;;;;;;;;6008685;29;20163;-78
2022/02/04 12:09:36;;;;;;;13.65;5.65;;;;;;;;;;6009945;29;20054;-79
2022/02/04 12:12:59;;;;;;;13.27;6.05;;;;;;;;;;6011086;29;20049;-78
2022/02/04 12:16:22;;;;;;;13.15;5.35;;;;;;;;;;6010816;29;20050;-79
2022/02/04 12:19:36;;;;;;;13.13;6.63;;;;;;;;;;6008686;29;20073;-78
2022/02/04 12:22:48;;;;;;;15.55;6.97;;;;;;;;;;6008240;29;20543;-77
2022/02/04 12:25:55;;;;;;;13.70;6.00;;;;;;;;;;6009463;29;20057;-78
2022/02/04 12:29:01;;;;;;;15.10;6.55;;;;;;;;;;6010796;29;20057;-78
2022/02/04 12:32:04;;;;;;;14.65;6.10;;;;;;;;;;6007668;29;20050;-78
2022/02/04 12:35:16;;;;;;;15.07;6.32;;;;;;;;;;6010407;29;20061;-78
2022/02/04 12:38:19;;;;;;;10.93;6.15;;;;;;;;;;6010334;29;20045;-79
2022/02/04 12:41:27;;;;;;;13.35;6.10;;;;;;;;;;6008975;29;20054;-78
2022/02/04 12:44:33;;;;;;;12.90;5.70;;;;;;;;;;6007449;29;20050;-77
2022/02/04 12:47:36;;;;;;;15.15;6.85;;;;;;;;;;6010330;29;20524;-77
2022/02/04 12:50:44;;;;;;;15.18;6.88;;;;;;;;;;6008799;29;20129;-77
2022/02/04 12:53:49;;;;;;;13.40;5.40;;;;;;;;;;6008624;29;20042;-78
2022/02/04 12:57:26;;;;;;;16.17;6.85;;;;;;;;;;6006977;29;20056;-79
2022/02/04 13:01:55;;;;;;;10.38;5.65;;;;;;;;;;6005811;29;20378;-78
2022/02/04 13:07:33;;;;;;;15.25;7.10;;;;;;;;;;5994566;29;20069;-78
2022/02/04 13:10:56;;;;;;;15.93;6.97;;;;;;;;;;6003905;29;20146;-78
2022/02/04 13:14:00;;;;;;;16.17;7.15;;;;;;;;;;6004372;29;20061;-78
2022/02/04 13:17:03;;;;;;;16.92;6.88;;;;;;;;;;6005710;29;20101;-77
2022/02/04 13:20:07;;;;;;;13.73;7.13;;;;;;;;;;6008214;29;20512;-76
2022/02/04 13:23:13;;;;;;;16.35;6.63;;;;;;;;;;6008722;29;20046;-77
2022/02/04 13:26:21;;;;;;;16.52;7.35;;;;;;;;;;6009635;29;20050;-76
2022/02/04 13:29:24;;;;;;;;;;;;;;;;;;6008081;29;20085;-77
2022/02/04 13:32:27;;;;;;;13.18;7.10;;;;;;;;;;6007654;29;20376;-76
2022/02/04 13:35:37;;;;;;;15.50;6.32;;;;;;;;;;6007761;29;20049;-76
2022/02/04 13:38:49;;;;;;;16.00;6.40;;;;;;;;;;6007656;29;20050;-76
2022/02/04 13:42:06;;;;;;;17.70;7.47;;;;;;;;;;6007661;29;20129;-75
2022/02/04 13:45:24;;;;;;;13.60;5.95;;;;;;;;;;6006289;29;20046;-76
2022/02/04 13:48:42;;;;;;;13.27;6.20;;;;;;;;;;6007230;29;20050;-77
2022/02/04 13:52:04;;;;;;;16.65;6.35;;;;;;;;;;6007504;29;20054;-76
2022/02/04 13:55:24;;;;;;;14.93;6.00;;;;;;;;;;6007956;29;20523;-77
2022/02/04 13:58:35;;;;;;;13.30;6.35;;;;;;;;;;6005990;29;20049;-76
2022/02/04 14:01:46;;;;;;;41.90;17.92;;;;;;;;;;6008155;29;20062;-78
2022/02/04 14:04:55;;;;;;;13.45;6.63;;;;;;;;;;6008523;29;20049;-75
2022/02/04 14:08:05;;;;;;;89.15;45.95;;;;;;;;;;6006820;29;20171;-75
2022/02/04 14:11:10;;;;;;;15.85;7.72;;;;;;;;;;6006068;29;20050;-75
2022/02/04 14:14:36;;;;;;;14.95;7.25;;;;;;;;;;6006728;29;20086;-77
2022/02/04 14:17:39;;;;;;;21.05;8.50;;;;;;;;;;6008105;29;20056;-75
2022/02/04 14:20:44;;;;;;;17.08;7.07;;;;;;;;;;6006582;29;20482;-77
2022/02/04 14:23:50;;;;;;;16.47;6.80;;;;;;;;;;6005921;29;20102;-76
2022/02/04 14:26:56;;;;;;;12.60;7.00;;;;;;;;;;6006494;29;20046;-75
2022/02/04 14:30:04;;;;;;;14.27;6.80;;;;;;;;;;6007296;29;20054;-76
2022/02/04 14:33:15;;;;;;;18.42;7.93;;;;;;;;;;6005384;29;20053;-75
2022/02/04 14:36:26;;;;;;;17.00;7.68;;;;;;;;;;6007567;29;20126;-76
2022/02/04 14:53:18;;;;;;;14.43;7.30;;;;;;;;;;5959260;29;20518;-78
2022/02/04 15:00:17;;;;;;;21.33;7.80;;;;;;;;;;6005644;29;20515;-78
2022/02/04 15:03:39;;;;;;;18.48;7.93;;;;;;;;;;6006094;29;20090;-77
2022/02/04 15:06:42;;;;;;;17.15;7.35;;;;;;;;;;6005711;29;20125;-78
2022/02/04 15:09:52;;;;;;;15.18;7.35;;;;;;;;;;6006754;29;20062;-78
2022/02/04 15:12:56;;;;;;;17.30;7.32;;;;;;;;;;6005647;29;20054;-79
2022/02/04 15:16:03;;;;;;;15.85;7.40;;;;;;;;;;6005179;29;20378;-77
2022/02/04 15:19:06;;;;;;;17.30;7.78;;;;;;;;;;6006830;29;20054;-78
2022/02/04 15:22:09;;;;;;;16.55;7.78;;;;;;;;;;6004990;29;20053;-77
2022/02/04 15:25:19;;;;;;;17.92;7.95;;;;;;;;;;6004077;29;20359;-77
2022/02/04 15:28:37;;;;;;;15.75;7.25;;;;;;;;;;6006468;29;20050;-78
2022/02/04 15:31:45;;;;;;;21.23;7.78;;;;;;;;;;6006585;29;20053;-78
2022/02/04 15:34:50;;;;;;;16.95;7.82;;;;;;;;;;6003918;29;20062;-76
2022/02/04 15:37:56;;;;;;;22.33;8.77;;;;;;;;;;6003777;29;20060;-76
2022/02/04 15:40:59;;;;;;;18.48;7.45;;;;;;;;;;6005023;29;20122;-76
2022/02/04 15:44:09;;;;;;;21.65;7.78;;;;;;;;;;6004457;29;20054;-77
2022/02/04 15:47:32;;;;;;;14.90;8.13;;;;;;;;;;6003581;29;20045;-78
2022/02/04 15:50:40;;;;;;;21.20;9.80;;;;;;;;;;6005679;29;20110;-78
2022/02/04 15:53:59;;;;;;;24.73;8.10;;;;;;;;;;6004928;29;20098;-80
2022/02/04 15:57:16;;;;;;;20.70;7.75;;;;;;;;;;6005684;29;20069;-78
2022/02/04 16:03:56;;;;;;;20.92;8.55;;;;;;;;;;6004426;29;20202;-78
2022/02/04 16:07:04;;;;;;;21.58;8.43;;;;;;;;;;6006016;29;20813;-77
2022/02/04 16:10:24;;;;;;;19.45;7.55;;;;;;;;;;6005107;29;20062;-78
2022/02/04 16:13:40;;;;;;;17.55;7.55;;;;;;;;;;6003211;29;20427;-78
2022/02/04 16:16:48;;;;;;;17.67;8.85;;;;;;;;;;6004151;29;20078;-78
2022/02/04 16:20:08;;;;;;;17.58;7.88;;;;;;;;;;6004690;29;20512;-74
2022/02/04 16:23:35;;;;;;;20.73;8.65;;;;;;;;;;6003516;29;20053;-75
2022/02/04 16:26:50;;;;;;;16.80;7.18;;;;;;;;;;6001224;29;20058;-75
2022/02/04 16:29:57;;;;;;;20.33;7.93;;;;;;;;;;6005178;29;20046;-75
2022/02/04 16:33:02;;;;;;;20.17;7.90;;;;;;;;;;6005782;29;20050;-74
2022/02/04 16:36:13;;;;;;;19.50;8.35;;;;;;;;;;6002556;29;20045;-75
2022/02/04 16:39:19;;;;;;;28.80;9.65;;;;;;;;;;6002555;29;20053;-76
2022/02/04 16:42:22;;;;;;;21.13;8.10;;;;;;;;;;6004501;29;20497;-76
2022/02/04 16:45:25;;;;;;;24.42;8.63;;;;;;;;;;6003987;29;20061;-76
2022/02/04 16:48:30;;;;;;;24.50;8.35;;;;;;;;;;6006841;29;20056;-74
2022/02/04 16:51:35;;;;;;;24.88;9.32;;;;;;;;;;6009271;29;20049;-74
2022/02/04 16:54:38;;;;;;;21.60;7.72;;;;;;;;;;6010040;29;20133;-75
2022/02/04 16:57:43;;;;;;;20.40;8.43;;;;;;;;;;6007644;29;20057;-75
2022/02/04 17:00:46;;;;;;;20.45;8.60;;;;;;;;;;6006006;29;20535;-74
2022/02/04 17:03:50;;;;;;;20.80;8.77;;;;;;;;;;6008194;29;20413;-75
2022/02/04 17:07:00;;;;;;;32.35;10.93;;;;;;;;;;6007864;29;20046;-75
2022/02/04 17:10:04;;;;;;;23.63;9.52;;;;;;;;;;6004332;29;20061;-75
2022/02/04 17:13:07;;;;;;;21.60;9.38;;;;;;;;;;6004581;29;20049;-75
2022/02/04 17:16:12;;;;;;;17.15;7.53;;;;;;;;;;6003825;29;20049;-75
2022/02/04 17:19:20;;;;;;;21.48;8.00;;;;;;;;;;6004394;29;20069;-74
2022/02/04 17:22:25;;;;;;;22.45;8.00;;;;;;;;;;6003980;29;20056;-75
2022/02/04 17:25:29;;;;;;;17.52;7.75;;;;;;;;;;6006665;29;20118;-73
2022/02/04 17:28:32;;;;;;;24.50;10.93;;;;;;;;;;6007406;29;20054;-74
2022/02/04 17:31:38;;;;;;;25.85;9.93;;;;;;;;;;6006848;29;20101;-74
2022/02/04 17:34:42;;;;;;;18.42;8.25;;;;;;;;;;6008634;29;20052;-74
2022/02/04 17:37:51;;;;;;;24.13;9.38;;;;;;;;;;6007836;29;20046;-74
2022/02/04 17:40:57;;;;;;;19.73;7.93;;;;;;;;;;6006545;29;20058;-74
2022/02/04 17:44:01;;;;;;;18.83;7.72;;;;;;;;;;6006307;29;20615;-75
2022/02/04 17:47:05;;;;;;;18.75;8.38;;;;;;;;;;6007292;29;20061;-73
2022/02/04 17:50:13;;;;;;;27.13;9.77;;;;;;;;;;6008048;29;20046;-75
2022/02/04 17:53:21;;;;;;;22.48;10.18;;;;;;;;;;6005889;29;20493;-74
2022/02/04 17:56:34;;;;;;;25.73;9.85;;;;;;;;;;6007989;29;20402;-74
2022/02/04 18:03:06;;;;;;;26.77;10.35;;;;;;;;;;5996456;29;20058;-73
2022/02/04 18:06:14;;;;;;;21.52;10.18;;;;;;;;;;6007154;29;20077;-74
2022/02/04 18:09:19;;;;;;;22.60;9.13;;;;;;;;;;6007515;29;20062;-74
2022/02/04 18:12:24;;;;;;;26.77;10.68;;;;;;;;;;6006806;29;20054;-74
2022/02/04 18:15:27;;;;;;;24.70;8.80;;;;;;;;;;6007037;29;20448;-74
2022/02/04 18:18:31;;;;;;;26.58;9.63;;;;;;;;;;6006090;29;20058;-74
2022/02/04 18:21:34;;;;;;;23.75;8.05;;;;;;;;;;6007851;29;20038;-74
2022/02/04 18:24:39;;;;;;;25.48;9.80;;;;;;;;;;6005918;29;20557;-74
2022/02/04 18:27:46;;;;;;;19.45;9.80;;;;;;;;;;6005554;29;20077;-74
2022/02/04 18:30:50;;;;;;;21.45;8.93;;;;;;;;;;6006705;29;20049;-73
2022/02/04 18:33:53;;;;;;;24.05;10.18;;;;;;;;;;6007476;29;20050;-74
2022/02/04 18:36:59;;;;;;;23.60;10.68;;;;;;;;;;6006311;29;20048;-74
2022/02/04 18:40:27;;;;;;;;;;;;;;;;;;6006294;29;20109;-73
2022/02/04 18:43:51;;;;;;;24.23;9.85;;;;;;;;;;6006051;29;19924;-77
2022/02/04 18:47:11;;;;;;;26.60;10.70;;;;;;;;;;6006009;29;20174;-73
2022/02/04 18:50:26;;;;;;;24.90;11.15;;;;;;;;;;6006243;29;20054;-73
2022/02/04 18:57:09;;;;;;;24.85;11.70;;;;;;;;;;6007062;29;20057;-75
2022/02/04 19:00:18;;;;;;;28.20;11.33;;;;;;;;;;6005751;29;20054;-75
2022/02/04 19:03:25;;;;;;;23.35;11.18;;;;;;;;;;6006135;29;20053;-73
2022/02/04 19:06:36;;;;;;;27.30;9.80;;;;;;;;;;6004936;29;20057;-74
2022/02/04 19:09:40;;;;;;;26.80;11.00;;;;;;;;;;6006527;29;20145;-74
2022/02/04 19:12:49;;;;;;;25.25;10.55;;;;;;;;;;6004515;29;20050;-74
2022/02/04 19:16:07;;;;;;;27.50;11.50;;;;;;;;;;6004378;29;20553;-73
2022/02/04 19:19:19;;;;;;;31.35;12.80;;;;;;;;;;6004754;29;20081;-73
2022/02/04 19:22:31;;;;;;;25.95;10.77;;;;;;;;;;6005449;29;20124;-73
2022/02/04 19:25:37;;;;;;;31.35;11.27;;;;;;;;;;6006160;29;20560;-74
2022/02/04 19:28:41;;;;;;;25.45;11.15;;;;;;;;;;6005266;29;20062;-74
2022/02/04 19:31:51;;;;;;;24.10;11.07;;;;;;;;;;6006195;29;20050;-74
2022/02/04 19:34:55;;;;;;;21.15;9.77;;;;;;;;;;6005300;29;20058;-73
2022/02/04 19:37:59;;;;;;;27.38;10.35;;;;;;;;;;6003997;29;20391;-74
2022/02/04 19:41:02;;;;;;;25.13;10.15;;;;;;;;;;6004436;29;20069;-73
2022/02/04 19:44:06;;;;;;;26.25;10.93;;;;;;;;;;6004971;29;20054;-73
2022/02/04 19:47:14;;;;;;;24.25;11.38;;;;;;;;;;6004374;29;20045;-73
2022/02/04 19:50:26;;;;;;;27.45;11.50;;;;;;;;;;6005142;29;20081;-73
2022/02/04 19:53:48;;;;;;;24.23;11.20;;;;;;;;;;6004894;29;20050;-73
2022/02/04 20:07:14;;;;;;;21.73;10.38;;;;;;;;;;6005504;29;20445;-74
2022/02/04 20:23:51;;;;;;;21.77;11.02;;;;;;;;;;6008634;29;20053;-74
2022/02/04 20:26:57;;;;;;;24.92;12.65;;;;;;;;;;6009225;29;20054;-74
2022/02/04 20:30:00;;;;;;;25.33;11.65;;;;;;;;;;6009222;29;20042;-73
2022/02/04 20:33:04;;;;;;;24.15;10.68;;;;;;;;;;6009476;29;20058;-74
2022/02/04 20:36:10;;;;;;;24.30;11.18;;;;;;;;;;6008914;29;20053;-73
2022/02/04 20:39:19;;;;;;;23.20;11.45;;;;;;;;;;6008244;29;20045;-74
2022/02/04 20:42:22;;;;;;;24.23;11.38;;;;;;;;;;6007697;29;20656;-74
2022/02/04 20:45:25;;;;;;;24.08;11.55;;;;;;;;;;6008272;29;20128;-74
2022/02/04 20:48:33;;;;;;;25.42;11.25;;;;;;;;;;6009991;29;20625;-74
2022/02/04 20:51:38;;;;;;;21.08;11.25;;;;;;;;;;6008832;29;20064;-74
2022/02/04 20:54:43;;;;;;;28.42;12.18;;;;;;;;;;6007909;29;20054;-74
2022/02/04 20:57:53;;;;;;;23.67;12.23;;;;;;;;;;6009689;29;20050;-74
2022/02/04 21:00:59;;;;;;;22.55;11.65;;;;;;;;;;6007829;29;20502;-74
2022/02/04 21:04:08;;;;;;;25.33;11.68;;;;;;;;;;6007806;29;20053;-74
2022/02/04 21:07:20;;;;;;;21.80;10.75;;;;;;;;;;6008396;29;20061;-78
2022/02/04 21:13:49;;;;;;;25.42;12.27;;;;;;;;;;6007540;29;20065;-76
2022/02/04 21:16:55;;;;;;;25.92;10.88;;;;;;;;;;6008585;29;20054;-76
2022/02/04 21:19:59;;;;;;;23.05;11.48;;;;;;;;;;6009357;29;20098;-76
2022/02/04 21:23:09;;;;;;;27.20;11.93;;;;;;;;;;6007881;29;20050;-77
2022/02/04 21:26:12;;;;;;;26.25;13.10;;;;;;;;;;6006961;29;20057;-76
2022/02/04 21:29:16;;;;;;;30.75;12.40;;;;;;;;;;6008619;29;20057;-77
2022/02/04 21:32:19;;;;;;;31.60;12.95;;;;;;;;;;6007654;29;20058;-76
2022/02/04 21:38:45;;;;;;;26.60;13.43;;;;;;;;;;6006904;29;20144;-76
2022/02/04 21:41:49;;;;;;;25.13;12.50;;;;;;;;;;6007370;29;20050;-76
2022/02/04 21:44:56;;;;;;;27.35;13.20;;;;;;;;;;6007881;29;20383;-76
2022/02/04 21:48:02;;;;;;;27.65;12.77;;;;;;;;;;6007729;29;20046;-75
2022/02/04 21:51:05;;;;;;;24.60;12.45;;;;;;;;;;6007266;29;20065;-75
2022/02/04 21:54:13;;;;;;;29.05;13.40;;;;;;;;;;6008527;29;20056;-75
2022/02/04 21:57:16;;;;;;;26.70;13.35;;;;;;;;;;6006685;29;20057;-76
2022/02/04 22:00:20;;;;;;;29.23;13.68;;;;;;;;;;6006178;29;20054;-76
2022/02/04 22:03:23;;;;;;;29.35;13.82;;;;;;;;;;6008360;29;20054;-77
2022/02/04 22:06:29;;;;;;;28.48;14.50;;;;;;;;;;6008081;29;20405;-77
2022/02/04 22:09:43;;;;;;;27.73;14.32;;;;;;;;;;6005527;29;20064;-77
2022/02/04 22:13:07;;;;;;;28.73;14.20;;;;;;;;;;6006277;29;20053;-78
2022/02/04 22:16:38;;;;;;;27.90;13.15;;;;;;;;;;6008059;29;20159;-77
2022/02/04 22:23:02;;;;;;;25.70;12.95;;;;;;;;;;6005965;29;20042;-77
2022/02/04 22:26:08;;;;;;;29.02;12.77;;;;;;;;;;6005799;29;20052;-78
2022/02/04 22:29:12;;;;;;;;;;;;;;;;;;6008428;29;20054;-77
2022/02/04 22:32:30;;;;;;;25.50;12.07;;;;;;;;;;6007429;29;20257;-78
2022/02/04 22:35:42;;;;;;;24.65;12.55;;;;;;;;;;6006699;29;20050;-79
2022/02/04 22:39:06;;;;;;;25.20;12.23;;;;;;;;;;6007046;29;20050;-78
2022/02/04 22:52:25;;;;;;;26.23;12.02;;;;;;;;;;6002063;29;20054;-76
2022/02/04 22:55:41;;;;;;;26.73;13.88;;;;;;;;;;6003080;29;20394;-76
2022/02/04 22:58:51;;;;;;;25.85;12.90;;;;;;;;;;6001737;29;20046;-73
2022/02/04 23:01:54;;;;;;;28.65;13.07;;;;;;;;;;6003329;29;20049;-73
2022/02/04 23:04:57;;;;;;;25.10;12.38;;;;;;;;;;6003081;29;20046;-74
2022/02/04 23:08:10;;;;;;;25.63;13.10;;;;;;;;;;6005500;29;20065;-74
2022/02/04 23:11:13;;;;;;;25.10;12.57;;;;;;;;;;6005080;29;20046;-74
2022/02/04 23:14:22;;;;;;;29.30;12.57;;;;;;;;;;6005869;29;20060;-74
2022/02/04 23:17:36;;;;;;;26.90;12.43;;;;;;;;;;6005119;29;20054;-73
2022/02/04 23:20:40;;;;;;;26.08;13.10;;;;;;;;;;6005412;29;20125;-75
2022/02/04 23:23:47;;;;;;;25.30;12.23;;;;;;;;;;6005692;29;20060;-75
2022/02/04 23:26:54;;;;;;;23.65;11.93;;;;;;;;;;6005931;29;20125;-72
2022/02/04 23:33:45;;;;;;;23.52;11.50;;;;;;;;;;6005810;29;20117;-73
2022/02/04 23:47:16;;;;;;;25.67;11.82;;;;;;;;;;5990758;29;20054;-73
2022/02/04 23:50:19;;;;;;;21.17;11.05;;;;;;;;;;6004545;29;20187;-73
2022/02/04 23:53:22;;;;;;;24.23;11.55;;;;;;;;;;6005368;29;20049;-74
2022/02/04 23:56:25;;;;;;;22.20;10.68;;;;;;;;;;6004314;29;20062;-74
